Pagrindinis puslapis
METAR-TAF:

METAR-TAF

Oro uostai :

Jizan, Saudo Arabija

platuma: 16-54N, ilguma: 042-35E, Aukštis: 6 m

Dabartinis oras

Ataskaita buvo paskelbta 32 minutes, ne 23:00 UTC
Ramus vėjas
Temperatūra 29°C
Drėgmė 84%
Slėgis 1010 hPa
Matomumas: 9000 m

METAR: OEGN 052300Z 00000KT 9000 NSC 29/26 Q1010 NOSIG

Laikas: 02:32 (23:32 UTC)

Prognozė

Ataskaita buvo paskelbta 12 valandos ir 32 minutes, ne 11:00 UTC
Prognozė galioja nuo 05 metu 12 UTC su 06 metu 18 UTC
Vėjas 10 kt iš Pietvakarių
Matomumas 10 km arba daugiau
Mažai debesys ne aukštis 3000 ft
Tikimybė 30% :
Laikinai
nuo 05 metu 12 UTC su 05 metu 18 UTC
Mažai debesys ne aukštis 3500 ft, Liūtiniai kamuoliniai debesys.
Tapsmas
nuo 05 metu 18 UTC su 05 metu 20 UTC
Vėjas 5 kt iš Pietų/Pietryčių
Tapsmas
nuo 06 metu 06 UTC su 06 metu 08 UTC
Vėjas 14 kt iš Vakarų/Pietvakarių

TAF: OEGN 051100Z 0512/0618 22010KT 9999 FEW030 PROB30 TEMPO 0512/0518 FEW035CB BECMG 0518/0520 15005KT BECMG 0606/0608 24014KT

Orai ataskaitas ir orų prognozės (METAR, TAF).

turimą stotys yra geltonos ir raudonos taškus žemėlapyje.

Perkelti pele per norėdami pamatyti stoties vardą.

Tada spustelėkite, norėdami matyti oro stebėjimo ir prognozės.

Norėdami pakeisti žemėlapį: spustelėkite ant žalios mygtukų su juodo kryžiaus žemyn,; žalią mygtuką su brūkšneliu, jei norite nutolinti; arba žalių rodyklių gretimoms žemėlapius.


METAR-TAF: